Time;durP1;ratioP1;P1;durP2;ratioP2;P2;SDS_P1;SDS_P2;PMS_P1;PMS_P2;Temp;Humidity;BMP_temperature;BMP_pressure;BME280_temperature;BME280_humidity;BME280_pressure;Samples;Min_cycle;Max_cycle;Signal;HPM_P1;HPM_P2
2023/05/09 00:02:47;;;;;;;6.40;6.10;;;9.40;59.40;;;;;;6202752;28;20717;-83
2023/05/09 00:05:50;;;;;;;6.37;6.07;;;9.40;59.50;;;;;;6177070;28;20315;-82
2023/05/09 00:08:54;;;;;;;5.93;5.67;;;9.40;59.40;;;;;;6180305;28;20235;-81
2023/05/09 00:11:57;;;;;;;6.80;6.30;;;9.40;59.40;;;;;;6189431;28;20754;-85
2023/05/09 00:15:02;;;;;;;6.17;5.87;;;9.40;59.50;;;;;;6197369;28;20239;-82
2023/05/09 00:18:05;;;;;;;6.27;5.87;;;9.40;59.30;;;;;;6191268;28;20243;-80
2023/05/09 00:21:08;;;;;;;6.37;6.07;;;9.40;59.40;;;;;;6213453;28;20239;-83
2023/05/09 00:24:11;;;;;;;6.13;5.90;;;9.40;59.30;;;;;;6183730;28;20239;-84
2023/05/09 00:27:15;;;;;;;6.43;6.07;;;9.30;59.20;;;;;;6179994;28;20236;-83
2023/05/09 00:30:20;;;;;;;6.30;5.97;;;9.20;59.50;;;;;;6180316;28;20263;-84
2023/05/09 00:33:25;;;;;;;6.27;5.90;;;9.20;59.40;;;;;;6173662;28;20232;-83
2023/05/09 00:36:28;;;;;;;6.80;6.33;;;9.20;59.50;;;;;;6200546;28;20227;-82
2023/05/09 00:39:31;;;;;;;6.50;6.10;;;9.20;59.40;;;;;;6203899;28;20231;-83
2023/05/09 00:42:35;;;;;;;6.13;5.73;;;9.20;59.40;;;;;;6198573;28;20643;-82
2023/05/09 00:45:40;;;;;;;6.77;6.10;;;9.20;59.40;;;;;;6201002;28;20235;-83
2023/05/09 00:48:44;;;;;;;6.53;6.17;;;9.20;59.30;;;;;;6205662;28;20390;-83
2023/05/09 00:51:48;;;;;;;6.47;5.97;;;9.20;59.50;;;;;;6197399;28;20255;-83
2023/05/09 00:54:51;;;;;;;6.33;5.83;;;9.00;59.60;;;;;;6204197;28;20250;-84
2023/05/09 00:57:54;;;;;;;6.30;5.80;;;9.00;59.50;;;;;;6206167;28;20244;-83
2023/05/09 01:01:01;;;;;;;6.30;6.00;;;9.00;59.30;;;;;;6183626;28;20247;-82
2023/05/09 01:04:04;;;;;;;6.57;5.90;;;9.00;59.60;;;;;;6190075;28;20267;-84
2023/05/09 01:07:16;;;;;;;5.37;5.17;;;9.00;59.20;;;;;;6203273;28;20242;-83
2023/05/09 01:10:28;;;;;;;5.83;5.53;;;9.00;59.30;;;;;;6199267;28;20258;-82
2023/05/09 01:13:38;;;;;;;5.57;5.27;;;9.00;59.00;;;;;;6209791;28;20235;-84
2023/05/09 01:16:48;;;;;;;5.90;5.63;;;9.00;59.00;;;;;;6196982;28;20729;-85
2023/05/09 01:20:04;;;;;;;6.23;5.80;;;9.00;58.50;;;;;;6201247;28;20235;-83
2023/05/09 01:23:36;;;;;;;5.37;5.00;;;9.00;58.30;;;;;;6211903;28;20251;-83
2023/05/09 01:26:46;;;;;;;5.70;5.17;;;9.00;58.50;;;;;;6187790;28;20232;-84
2023/05/09 01:29:56;;;;;;;5.30;4.83;;;9.00;58.40;;;;;;6216978;28;20235;-83
2023/05/09 01:33:01;;;;;;;5.70;5.30;;;9.10;58.40;;;;;;6200228;28;20709;-84
2023/05/09 01:36:08;;;;;;;5.80;5.30;;;9.00;58.00;;;;;;6198579;28;20847;-83
2023/05/09 01:39:13;;;;;;;6.27;5.87;;;9.00;57.90;;;;;;6215500;28;20261;-83
2023/05/09 01:42:20;;;;;;;5.77;5.37;;;9.00;58.20;;;;;;6203120;28;20236;-83
2023/05/09 01:45:26;;;;;;;5.10;4.70;;;9.00;57.90;;;;;;6202341;28;20265;-84
2023/05/09 01:48:30;;;;;;;5.50;4.90;;;9.00;57.40;;;;;;6200244;28;20246;-84
2023/05/09 01:51:36;;;;;;;5.50;5.20;;;9.00;57.30;;;;;;6187822;28;20240;-83
2023/05/09 01:54:40;;;;;;;5.47;5.17;;;9.00;57.40;;;;;;6202913;28;20634;-80
2023/05/09 01:57:44;;;;;;;5.00;4.70;;;9.00;57.20;;;;;;6203253;28;20231;-83
2023/05/09 02:00:50;;;;;;;5.67;5.10;;;9.00;57.10;;;;;;6201648;28;20249;-84
2023/05/09 02:03:56;;;;;;;4.80;4.60;;;9.00;57.00;;;;;;6201616;28;20374;-83
2023/05/09 02:07:00;;;;;;;5.23;4.93;;;9.00;57.10;;;;;;6207473;28;20370;-84
2023/05/09 02:10:07;;;;;;;4.70;4.30;;;9.00;56.70;;;;;;6209260;28;20250;-83
2023/05/09 02:13:10;;;;;;;5.10;4.90;;;9.00;56.40;;;;;;6217948;28;20239;-83
2023/05/09 02:16:15;;;;;;;4.47;4.37;;;8.90;56.40;;;;;;6207485;28;20247;-84
2023/05/09 02:19:18;;;;;;;5.33;5.03;;;9.00;56.10;;;;;;6214322;28;20243;-82
2023/05/09 02:22:21;;;;;;;4.90;4.70;;;9.00;55.90;;;;;;6215806;28;20319;-85
2023/05/09 02:25:25;;;;;;;4.80;4.50;;;8.90;56.10;;;;;;6200222;28;20235;-81
2023/05/09 02:28:29;;;;;;;5.13;4.83;;;8.90;55.80;;;;;;6199793;28;20389;-83
2023/05/09 02:31:35;;;;;;;4.87;4.53;;;8.90;55.80;;;;;;6199716;28;20239;-84
2023/05/09 02:34:41;;;;;;;5.30;5.00;;;8.90;55.70;;;;;;6198915;28;20239;-84
2023/05/09 02:37:45;;;;;;;4.90;4.50;;;8.90;56.00;;;;;;6200930;28;20245;-84
2023/05/09 02:40:48;;;;;;;4.80;4.40;;;8.80;55.70;;;;;;6214274;28;20286;-84
2023/05/09 02:43:54;;;;;;;4.97;4.67;;;8.80;56.00;;;;;;6170491;28;20243;-85
2023/05/09 02:47:01;;;;;;;5.10;4.90;;;8.80;55.70;;;;;;6203372;28;20757;-82
2023/05/09 02:50:05;;;;;;;4.37;4.07;;;8.80;55.80;;;;;;6199548;28;20235;-82
2023/05/09 02:53:08;;;;;;;4.93;4.43;;;8.80;55.80;;;;;;6198804;28;20246;-84
2023/05/09 02:56:11;;;;;;;4.90;4.60;;;8.70;56.20;;;;;;6200748;28;20295;-84
2023/05/09 02:59:15;;;;;;;5.10;4.87;;;8.70;56.10;;;;;;6191312;28;20250;-84
2023/05/09 03:02:19;;;;;;;4.73;4.50;;;8.70;56.00;;;;;;6201035;28;20258;-83
2023/05/09 03:05:22;;;;;;;5.13;4.77;;;8.60;56.20;;;;;;6208494;28;20289;-84
2023/05/09 03:08:26;;;;;;;5.40;5.10;;;8.60;56.40;;;;;;6206326;28;20320;-82
2023/05/09 03:11:29;;;;;;;5.13;4.83;;;8.60;56.30;;;;;;6210763;28;20331;-84
2023/05/09 03:14:32;;;;;;;4.70;4.50;;;8.60;56.20;;;;;;6195422;28;20246;-83
2023/05/09 03:17:37;;;;;;;4.80;4.67;;;8.60;56.10;;;;;;6195814;28;20240;-85
2023/05/09 03:20:40;;;;;;;4.60;4.50;;;8.60;56.10;;;;;;6207114;28;20243;-85
2023/05/09 03:23:43;;;;;;;5.10;4.90;;;8.60;56.50;;;;;;6176385;28;20247;-83
2023/05/09 03:26:46;;;;;;;5.60;5.20;;;8.50;56.50;;;;;;6203842;28;20239;-83
2023/05/09 03:29:51;;;;;;;4.80;4.60;;;8.50;56.60;;;;;;6213943;28;20734;-82
2023/05/09 03:32:56;;;;;;;5.10;4.90;;;8.50;56.90;;;;;;6198593;28;20597;-85
2023/05/09 03:35:59;;;;;;;5.33;4.90;;;8.50;57.10;;;;;;6212295;28;20941;-80
2023/05/09 03:39:02;;;;;;;5.33;4.90;;;8.50;56.90;;;;;;6208574;28;20242;-79
2023/05/09 03:42:07;;;;;;;6.03;4.50;;;8.50;57.00;;;;;;6205638;28;20262;-79
2023/05/09 03:45:11;;;;;;;5.20;4.87;;;8.50;56.90;;;;;;6199443;28;20283;-79
2023/05/09 03:48:16;;;;;;;4.83;4.60;;;8.50;57.10;;;;;;6205737;28;20669;-79
2023/05/09 03:51:20;;;;;;;5.03;4.80;;;8.50;56.70;;;;;;6201519;28;20754;-80
2023/05/09 03:54:23;;;;;;;5.00;4.80;;;8.60;57.20;;;;;;6222057;28;20614;-78
2023/05/09 03:57:26;;;;;;;5.07;4.87;;;8.50;57.20;;;;;;6202673;28;20243;-79
2023/05/09 04:00:29;;;;;;;5.23;4.83;;;8.50;57.30;;;;;;6203880;28;20758;-78
2023/05/09 04:03:33;;;;;;;5.33;5.03;;;8.50;57.40;;;;;;6198061;28;20236;-79
2023/05/09 04:06:37;;;;;;;5.97;5.33;;;8.50;57.20;;;;;;6204106;28;20253;-79
2023/05/09 04:09:41;;;;;;;5.57;5.17;;;8.50;57.40;;;;;;6214329;28;20239;-79
2023/05/09 04:12:44;;;;;;;5.30;4.97;;;8.50;57.30;;;;;;6215099;28;20318;-81
2023/05/09 04:15:47;;;;;;;6.53;5.53;;;8.60;57.70;;;;;;6212661;28;20338;-82
2023/05/09 04:18:51;;;;;;;5.13;4.77;;;8.60;57.60;;;;;;6213852;28;20246;-81
2023/05/09 04:21:54;;;;;;;5.20;4.90;;;8.60;57.50;;;;;;6198314;28;20231;-79
2023/05/09 04:24:59;;;;;;;6.13;5.70;;;8.60;57.30;;;;;;6198453;28;20234;-79
2023/05/09 04:28:02;;;;;;;5.67;5.20;;;8.70;57.10;;;;;;6214016;28;20232;-82
2023/05/09 04:31:05;;;;;;;5.60;5.30;;;8.60;57.10;;;;;;6196638;28;20236;-79
2023/05/09 04:34:10;;;;;;;6.07;5.70;;;8.70;57.20;;;;;;6204796;28;20243;-78
2023/05/09 04:37:13;;;;;;;5.70;5.20;;;8.60;57.30;;;;;;6196888;28;20639;-80
2023/05/09 04:40:16;;;;;;;6.70;6.10;;;8.70;57.30;;;;;;6212948;28;20317;-80
2023/05/09 04:43:19;;;;;;;6.13;5.60;;;8.70;57.60;;;;;;6205093;28;20322;-79
2023/05/09 04:46:23;;;;;;;5.73;5.37;;;8.70;57.50;;;;;;6208824;28;20275;-80
2023/05/09 04:49:29;;;;;;;5.57;5.27;;;8.80;57.10;;;;;;6215071;28;20239;-78
2023/05/09 04:52:32;;;;;;;6.40;6.00;;;8.90;57.30;;;;;;6216660;28;20235;-81
2023/05/09 04:55:35;;;;;;;7.07;6.30;;;9.00;57.00;;;;;;6215173;28;20223;-78
2023/05/09 04:58:38;;;;;;;6.10;5.57;;;9.00;57.30;;;;;;6217801;28;20231;-79
2023/05/09 05:01:41;;;;;;;6.73;6.00;;;9.00;57.20;;;;;;6219362;28;20243;-78
2023/05/09 05:04:45;;;;;;;6.23;5.73;;;9.20;56.70;;;;;;6214802;28;20298;-80
2023/05/09 05:07:48;;;;;;;5.77;5.43;;;9.40;56.30;;;;;;6212235;28;20240;-78
2023/05/09 05:10:52;;;;;;;7.03;5.60;;;9.50;56.10;;;;;;6205138;28;20239;-79
2023/05/09 05:13:55;;;;;;;5.77;5.50;;;9.60;56.00;;;;;;6214563;28;20293;-78
2023/05/09 05:16:58;;;;;;;5.47;5.00;;;9.70;55.60;;;;;;6215447;28;20251;-80
2023/05/09 05:20:05;;;;;;;5.53;5.23;;;10.00;55.50;;;;;;6192367;28;20236;-79
2023/05/09 05:23:08;;;;;;;5.80;5.37;;;10.10;54.90;;;;;;6214253;28;20377;-80
2023/05/09 05:26:11;;;;;;;5.47;5.10;;;10.30;54.60;;;;;;6215130;28;20235;-80
2023/05/09 05:29:14;;;;;;;5.47;5.20;;;10.50;54.20;;;;;;6205729;28;20976;-80
2023/05/09 05:32:17;;;;;;;7.30;5.00;;;10.70;53.40;;;;;;6206388;28;20243;-77
2023/05/09 05:35:23;;;;;;;7.40;5.20;;;10.90;53.50;;;;;;6204192;28;20306;-79
2023/05/09 05:38:26;;;;;;;4.97;4.57;;;11.10;53.30;;;;;;6209672;28;20242;-79
2023/05/09 05:41:32;;;;;;;6.20;5.40;;;11.40;52.30;;;;;;6194683;28;20582;-79
2023/05/09 05:44:37;;;;;;;5.43;5.00;;;11.50;52.30;;;;;;6206671;28;20310;-78
2023/05/09 05:47:40;;;;;;;4.77;4.57;;;11.70;52.40;;;;;;6210700;28;20754;-79
2023/05/09 05:50:45;;;;;;;5.50;4.93;;;11.90;51.70;;;;;;6207161;28;20231;-79
2023/05/09 05:53:48;;;;;;;5.67;5.10;;;12.00;51.80;;;;;;6204873;28;20363;-77
2023/05/09 05:56:51;;;;;;;5.37;4.90;;;12.30;51.20;;;;;;6207862;28;20266;-79
2023/05/09 05:59:54;;;;;;;7.13;5.00;;;12.50;50.70;;;;;;6196159;28;20236;-80
2023/05/09 06:02:57;;;;;;;5.00;4.60;;;12.40;50.70;;;;;;6213270;28;20239;-80
2023/05/09 06:06:02;;;;;;;5.37;4.97;;;12.60;50.50;;;;;;6214022;28;20235;-77
2023/05/09 06:09:05;;;;;;;7.00;4.53;;;12.60;50.40;;;;;;6209114;28;20705;-79
2023/05/09 06:12:08;;;;;;;5.00;4.70;;;12.90;50.40;;;;;;6215473;28;20235;-77
2023/05/09 06:15:11;;;;;;;6.23;5.83;;;13.30;49.60;;;;;;6182118;28;20599;-78
2023/05/09 06:18:17;;;;;;;6.40;5.20;;;13.60;49.60;;;;;;6204748;28;20230;-79
2023/05/09 06:21:22;;;;;;;6.33;5.27;;;13.50;48.80;;;;;;6208568;28;20232;-78
2023/05/09 06:24:25;;;;;;;5.87;5.40;;;13.70;49.00;;;;;;6208997;28;20239;-81
2023/05/09 06:27:38;;;;;;;7.10;5.60;;;14.00;48.50;;;;;;6206526;28;20234;-79
2023/05/09 06:30:41;;;;;;;6.70;4.70;;;14.20;48.30;;;;;;6206363;28;20263;-80
2023/05/09 06:33:44;;;;;;;5.07;4.80;;;14.50;48.00;;;;;;6206160;28;20223;-81
2023/05/09 06:36:49;;;;;;;4.70;4.40;;;14.30;47.40;;;;;;6210192;28;20715;-79
2023/05/09 06:39:52;;;;;;;5.13;4.70;;;14.50;47.80;;;;;;6204957;28;20299;-81
2023/05/09 06:42:55;;;;;;;5.40;5.00;;;14.50;47.30;;;;;;6211198;28;20235;-78
2023/05/09 06:45:58;;;;;;;5.00;4.60;;;14.30;46.90;;;;;;6209568;28;20273;-79
2023/05/09 06:49:02;;;;;;;4.93;4.53;;;14.10;47.90;;;;;;6217098;28;20252;-80
2023/05/09 06:52:06;;;;;;;6.97;4.87;;;14.30;47.60;;;;;;6215072;28;20274;-81
2023/05/09 06:55:12;;;;;;;5.23;4.93;;;14.50;48.10;;;;;;6213806;28;20235;-80
2023/05/09 06:58:16;;;;;;;6.33;4.50;;;14.70;47.70;;;;;;6197468;28;20325;-80
2023/05/09 07:01:19;;;;;;;4.97;4.67;;;14.90;48.10;;;;;;6187279;28;20247;-80
2023/05/09 07:04:22;;;;;;;6.00;4.73;;;15.00;47.20;;;;;;6201961;28;20243;-77
2023/05/09 07:07:26;;;;;;;5.10;4.63;;;15.00;46.50;;;;;;6203161;28;20306;-80
2023/05/09 07:10:29;;;;;;;5.07;4.67;;;14.70;47.40;;;;;;6203707;28;20310;-80
2023/05/09 07:13:32;;;;;;;5.37;4.47;;;14.50;46.90;;;;;;6214869;28;21460;-80
2023/05/09 07:16:37;;;;;;;6.33;4.80;;;14.60;47.00;;;;;;6218471;28;20768;-78
2023/05/09 07:19:40;;;;;;;5.17;4.63;;;14.60;47.40;;;;;;6210776;28;20228;-79
2023/05/09 07:22:44;;;;;;;5.03;4.73;;;14.60;47.10;;;;;;6210400;28;20240;-80
2023/05/09 07:25:48;;;;;;;4.60;4.40;;;14.60;47.00;;;;;;6191897;28;20361;-80
2023/05/09 07:28:51;;;;;;;4.47;4.13;;;14.60;47.40;;;;;;6213727;28;20403;-78
2023/05/09 07:31:54;;;;;;;6.33;4.20;;;14.70;47.50;;;;;;6203963;28;20254;-80
2023/05/09 07:34:57;;;;;;;4.90;4.60;;;14.50;46.60;;;;;;6203979;28;20235;-79
2023/05/09 07:38:01;;;;;;;4.70;4.40;;;14.30;46.50;;;;;;6204798;28;20863;-80
2023/05/09 07:41:05;;;;;;;5.13;4.67;;;14.30;46.80;;;;;;6201876;28;20236;-78
2023/05/09 07:44:08;;;;;;;5.00;4.40;;;14.20;47.60;;;;;;6212833;28;20729;-78
2023/05/09 07:47:11;;;;;;;4.43;4.13;;;14.40;47.40;;;;;;6202029;28;20285;-79
2023/05/09 07:50:15;;;;;;;4.50;4.20;;;14.60;47.10;;;;;;6199220;28;20236;-79
2023/05/09 07:53:20;;;;;;;5.83;4.33;;;14.60;47.70;;;;;;6199676;28;20249;-78
2023/05/09 07:56:23;;;;;;;5.03;4.00;;;14.70;46.80;;;;;;6214463;28;20231;-79
2023/05/09 07:59:26;;;;;;;4.10;3.93;;;14.70;45.80;;;;;;6196041;28;20242;-80
2023/05/09 08:02:29;;;;;;;4.70;4.30;;;14.80;45.90;;;;;;6203574;28;20243;-79
2023/05/09 08:05:32;;;;;;;5.23;4.30;;;14.90;45.90;;;;;;6208787;28;20352;-80
2023/05/09 08:08:37;;;;;;;4.80;4.40;;;14.90;45.50;;;;;;6213450;28;20232;-79
2023/05/09 08:11:41;;;;;;;4.23;3.93;;;14.80;45.20;;;;;;6213210;28;20318;-78
2023/05/09 08:14:44;;;;;;;4.70;4.30;;;14.70;45.60;;;;;;6206713;28;20227;-79
2023/05/09 08:17:47;;;;;;;8.77;5.07;;;14.50;45.30;;;;;;6203793;28;20239;-78
2023/05/09 08:20:50;;;;;;;4.70;4.40;;;14.40;45.90;;;;;;6201772;28;20231;-78
2023/05/09 08:23:55;;;;;;;4.73;4.43;;;14.30;45.80;;;;;;6192582;28;20248;-77
2023/05/09 08:26:58;;;;;;;4.57;4.27;;;14.50;45.70;;;;;;6190038;28;20945;-77
2023/05/09 08:30:02;;;;;;;19.17;5.13;;;14.60;45.70;;;;;;6206986;28;20266;-79
2023/05/09 08:33:05;;;;;;;8.03;4.50;;;14.80;45.20;;;;;;6187838;28;20263;-78
2023/05/09 08:36:08;;;;;;;4.30;4.10;;;15.00;45.40;;;;;;6192075;28;20239;-81
2023/05/09 08:39:13;;;;;;;5.33;4.43;;;15.00;45.40;;;;;;6191951;28;20403;-79
2023/05/09 08:42:21;;;;;;;4.13;3.87;;;15.30;44.80;;;;;;6200206;28;20259;-80
2023/05/09 08:45:30;;;;;;;5.13;4.00;;;15.10;45.40;;;;;;6180356;28;20293;-80
2023/05/09 08:48:36;;;;;;;4.43;4.13;;;15.20;44.70;;;;;;6215064;28;20243;-79
2023/05/09 08:51:40;;;;;;;4.13;3.93;;;15.10;44.40;;;;;;6199639;28;20232;-81
2023/05/09 08:54:45;;;;;;;4.90;4.43;;;15.20;44.80;;;;;;6203484;28;20330;-80
2023/05/09 08:57:49;;;;;;;4.00;3.70;;;15.60;45.30;;;;;;6203214;28;20231;-78
2023/05/09 09:00:54;;;;;;;5.10;4.03;;;15.80;45.20;;;;;;6204088;28;20762;-77
2023/05/09 09:03:57;;;;;;;4.40;4.10;;;15.80;45.90;;;;;;6210637;28;20319;-79
2023/05/09 09:07:04;;;;;;;3.80;3.70;;;15.90;44.80;;;;;;6213793;28;20332;-79
2023/05/09 09:10:11;;;;;;;5.80;4.23;;;16.00;44.50;;;;;;6207820;28;20239;-78
2023/05/09 09:13:15;;;;;;;4.67;4.37;;;16.00;44.50;;;;;;6210558;28;20245;-79
2023/05/09 09:16:20;;;;;;;5.60;4.30;;;16.00;43.70;;;;;;6211256;28;20242;-77
2023/05/09 09:19:29;;;;;;;18.97;4.87;;;16.00;43.70;;;;;;6205275;28;20246;-79
2023/05/09 09:22:34;;;;;;;8.00;4.63;;;16.10;44.20;;;;;;6205152;28;20315;-79
2023/05/09 09:25:39;;;;;;;4.20;3.97;;;16.10;44.00;;;;;;6204650;28;20742;-77
2023/05/09 09:28:42;;;;;;;7.70;4.40;;;16.10;44.90;;;;;;6200279;28;20247;-80
2023/05/09 09:31:47;;;;;;;4.80;4.23;;;16.20;43.20;;;;;;6203765;28;20387;-78
2023/05/09 09:34:51;;;;;;;6.10;4.20;;;16.30;42.70;;;;;;6206786;28;20223;-79
2023/05/09 09:37:58;;;;;;;4.50;3.90;;;16.30;42.90;;;;;;6213582;28;20246;-81
2023/05/09 09:41:04;;;;;;;4.40;4.20;;;16.30;43.10;;;;;;6213002;28;20243;-80
2023/05/09 09:44:08;;;;;;;4.10;3.63;;;16.50;43.80;;;;;;6211984;28;20236;-80
2023/05/09 09:47:11;;;;;;;4.00;3.90;;;16.60;43.60;;;;;;6208462;28;20232;-80
2023/05/09 09:50:15;;;;;;;4.30;3.90;;;16.80;43.50;;;;;;6224748;28;20513;-80
2023/05/09 09:53:20;;;;;;;9.77;4.07;;;17.00;41.50;;;;;;6221945;28;20317;-81
2023/05/09 09:56:39;;;;;;;4.63;4.17;;;16.90;42.40;;;;;;6218080;28;20260;-79
2023/05/09 09:59:57;;;;;;;3.70;3.50;;;16.90;42.50;;;;;;6211443;28;20224;-79
2023/05/09 10:03:00;;;;;;;4.90;3.93;;;17.00;42.40;;;;;;6238048;28;20250;-78
2023/05/09 10:06:04;;;;;;;4.23;3.80;;;17.20;42.60;;;;;;6240106;28;20254;-78
2023/05/09 10:09:07;;;;;;;4.10;3.67;;;17.20;41.90;;;;;;6222898;28;20264;-78
2023/05/09 10:12:13;;;;;;;7.07;3.83;;;17.30;41.80;;;;;;6212116;28;20284;-80
2023/05/09 10:15:20;;;;;;;5.63;3.70;;;17.40;42.60;;;;;;6217217;28;20256;-78
2023/05/09 10:18:27;;;;;;;4.53;3.87;;;17.50;41.80;;;;;;6223766;28;20234;-79
2023/05/09 10:21:31;;;;;;;3.53;3.43;;;17.70;42.30;;;;;;6227197;28;20242;-78
2023/05/09 10:24:39;;;;;;;3.80;3.57;;;17.80;41.50;;;;;;6236195;28;20263;-79
2023/05/09 10:27:46;;;;;;;3.97;3.07;;;17.80;41.70;;;;;;6233605;28;20241;-78
2023/05/09 10:30:57;;;;;;;5.07;3.67;;;17.80;41.90;;;;;;6242117;28;20240;-81
2023/05/09 10:34:04;;;;;;;7.27;4.20;;;18.00;41.80;;;;;;6201086;28;20232;-79
2023/05/09 10:37:09;;;;;;;4.13;3.77;;;17.80;42.00;;;;;;6193915;28;20239;-81
2023/05/09 10:40:14;;;;;;;6.43;3.87;;;17.80;40.70;;;;;;6187693;28;20247;-78
2023/05/09 10:43:18;;;;;;;5.63;3.80;;;17.90;40.70;;;;;;6209115;28;20268;-78
2023/05/09 10:46:22;;;;;;;5.60;3.90;;;18.00;41.20;;;;;;6212122;28;20269;-79
2023/05/09 10:49:26;;;;;;;6.37;4.10;;;18.00;41.30;;;;;;6185281;28;20634;-77
2023/05/09 10:52:32;;;;;;;5.60;3.70;;;18.10;40.90;;;;;;6195751;28;20253;-79
2023/05/09 10:55:48;;;;;;;4.50;4.20;;;18.10;40.60;;;;;;6211481;28;20766;-79
2023/05/09 10:58:53;;;;;;;3.83;3.50;;;18.00;40.70;;;;;;6215910;28;20244;-79
2023/05/09 11:01:59;;;;;;;4.03;3.73;;;18.10;41.40;;;;;;6213247;28;20319;-78
2023/05/09 11:05:16;;;;;;;6.80;3.70;;;18.30;40.30;;;;;;6208873;28;20234;-80
2023/05/09 11:08:25;;;;;;;4.10;3.80;;;18.40;40.70;;;;;;6216831;28;20308;-78
2023/05/09 11:11:29;;;;;;;5.73;3.97;;;18.50;40.60;;;;;;6199603;28;20322;-82
2023/05/09 11:14:40;;;;;;;3.80;3.50;;;18.40;40.80;;;;;;6204603;28;20224;-79
2023/05/09 11:17:44;;;;;;;4.13;3.93;;;18.30;40.20;;;;;;6222888;28;20236;-80
2023/05/09 11:20:50;;;;;;;4.10;3.80;;;18.30;40.60;;;;;;6225777;28;20219;-78
2023/05/09 11:23:53;;;;;;;4.90;3.47;;;18.40;40.80;;;;;;6237034;28;20251;-79
2023/05/09 11:26:57;;;;;;;11.13;4.10;;;18.40;40.80;;;;;;6252238;28;20242;-79
2023/05/09 11:30:05;;;;;;;9.53;4.30;;;18.50;41.30;;;;;;6243309;28;20310;-80
2023/05/09 11:33:22;;;;;;;5.40;3.83;;;18.50;40.40;;;;;;6241299;28;20283;-78
2023/05/09 11:36:32;;;;;;;5.83;3.87;;;18.60;40.00;;;;;;6241917;28;20220;-79
2023/05/09 11:39:55;;;;;;;4.20;4.00;;;18.70;40.40;;;;;;6233051;28;20227;-80
2023/05/09 11:42:59;;;;;;;6.73;3.50;;;18.90;40.70;;;;;;6230039;28;20223;-80
2023/05/09 11:46:04;;;;;;;3.77;3.57;;;18.90;40.40;;;;;;6222063;28;20258;-78
2023/05/09 11:49:07;;;;;;;4.27;3.97;;;18.90;40.10;;;;;;6245896;28;20250;-78
2023/05/09 11:52:13;;;;;;;3.93;3.60;;;18.90;39.70;;;;;;6221207;28;20224;-80
2023/05/09 11:55:18;;;;;;;4.27;3.87;;;19.10;40.30;;;;;;6235903;28;20299;-78
2023/05/09 11:58:23;;;;;;;3.90;3.60;;;18.90;40.70;;;;;;6233717;28;20223;-79
2023/05/09 12:01:29;;;;;;;3.77;3.50;;;19.00;40.40;;;;;;6223658;28;20259;-79
2023/05/09 12:04:32;;;;;;;4.40;3.80;;;19.20;40.10;;;;;;6225187;28;20248;-77
2023/05/09 12:07:36;;;;;;;5.20;3.30;;;19.30;40.10;;;;;;6222920;28;20223;-78
2023/05/09 12:10:39;;;;;;;14.30;4.00;;;19.30;39.80;;;;;;6233880;28;20239;-79
2023/05/09 12:13:47;;;;;;;4.37;4.17;;;19.40;39.60;;;;;;6230283;28;20240;-80
2023/05/09 12:16:51;;;;;;;4.97;3.83;;;19.30;39.60;;;;;;6237981;28;20232;-81
2023/05/09 12:19:54;;;;;;;3.43;3.23;;;19.30;39.70;;;;;;6224645;28;20358;-79
2023/05/09 12:22:57;;;;;;;5.43;3.57;;;19.40;39.60;;;;;;6229662;28;20261;-80
2023/05/09 12:26:00;;;;;;;8.63;3.50;;;19.50;40.10;;;;;;6222879;28;20739;-79
2023/05/09 12:29:04;;;;;;;3.70;3.50;;;19.50;40.00;;;;;;6225948;28;20228;-79
2023/05/09 12:32:08;;;;;;;6.70;3.83;;;19.60;39.70;;;;;;6207208;28;20232;-78
2023/05/09 12:35:11;;;;;;;8.57;3.70;;;19.50;39.30;;;;;;6230513;28;20250;-79
2023/05/09 12:38:15;;;;;;;6.27;3.60;;;19.50;40.40;;;;;;6220469;28;20248;-79
2023/05/09 12:41:20;;;;;;;4.40;3.87;;;19.50;40.40;;;;;;6220277;28;20223;-79
2023/05/09 12:44:47;;;;;;;4.23;3.83;;;19.70;40.40;;;;;;6234495;28;20307;-78
2023/05/09 12:47:54;;;;;;;5.47;3.40;;;19.90;40.40;;;;;;6242812;28;20234;-78
2023/05/09 12:51:01;;;;;;;4.37;3.97;;;20.00;39.60;;;;;;6231306;28;20239;-80
2023/05/09 12:54:05;;;;;;;6.27;3.63;;;20.00;39.30;;;;;;6222398;28;20291;-82
2023/05/09 12:57:21;;;;;;;4.40;4.00;;;20.00;39.80;;;;;;6229867;28;20259;-78
2023/05/09 13:00:24;;;;;;;7.27;4.27;;;20.00;40.10;;;;;;6228361;28;20247;-79
2023/05/09 13:03:36;;;;;;;8.50;3.53;;;20.00;40.20;;;;;;6235896;28;20239;-78
2023/05/09 13:06:48;;;;;;;5.03;3.70;;;20.10;39.80;;;;;;6215836;28;20231;-79
2023/05/09 13:09:56;;;;;;;10.73;4.13;;;20.00;39.60;;;;;;6218568;28;20245;-78
2023/05/09 13:12:59;;;;;;;4.43;3.63;;;20.10;39.30;;;;;;6215550;28;20228;-80
2023/05/09 13:16:04;;;;;;;5.07;3.87;;;20.00;39.00;;;;;;6218885;28;20235;-79
2023/05/09 13:19:10;;;;;;;5.50;4.00;;;20.00;39.20;;;;;;6199693;28;20236;-79
2023/05/09 13:22:15;;;;;;;7.60;3.53;;;20.00;39.40;;;;;;6203627;28;20234;-81
2023/05/09 13:25:19;;;;;;;6.87;3.83;;;20.00;39.10;;;;;;6217678;28;20251;-79
2023/05/09 13:28:22;;;;;;;10.23;3.90;;;20.10;38.90;;;;;;6210103;28;20235;-79
2023/05/09 13:31:25;;;;;;;4.53;3.40;;;20.10;39.30;;;;;;6214935;28;20322;-81
2023/05/09 13:34:30;;;;;;;3.60;3.33;;;20.10;39.50;;;;;;6213054;28;20822;-80
2023/05/09 13:37:33;;;;;;;5.30;3.53;;;20.10;38.90;;;;;;6209978;28;20228;-79
2023/05/09 13:40:36;;;;;;;7.87;3.63;;;20.10;39.40;;;;;;6210941;28;20239;-77
2023/05/09 13:43:41;;;;;;;4.60;3.43;;;20.20;39.70;;;;;;6216405;28;20231;-78
2023/05/09 13:46:45;;;;;;;3.60;3.30;;;20.20;39.40;;;;;;6222886;28;21073;-79
2023/05/09 13:49:51;;;;;;;3.80;3.50;;;20.20;39.30;;;;;;6217057;28;20239;-81
2023/05/09 13:52:54;;;;;;;5.77;3.30;;;20.10;39.50;;;;;;6212197;28;20267;-80
2023/05/09 13:55:57;;;;;;;3.93;3.67;;;20.30;40.00;;;;;;6204819;28;20236;-81
2023/05/09 13:59:00;;;;;;;4.07;3.80;;;20.30;39.50;;;;;;6211186;28;20235;-79
2023/05/09 14:02:03;;;;;;;10.00;4.03;;;20.20;39.20;;;;;;6218621;28;20250;-82
2023/05/09 14:05:09;;;;;;;9.73;3.87;;;20.00;39.30;;;;;;6210285;28;20235;-80
2023/05/09 14:08:12;;;;;;;4.13;3.50;;;20.10;39.40;;;;;;6211484;28;20246;-80
2023/05/09 14:11:15;;;;;;;5.40;3.53;;;20.30;39.50;;;;;;6215680;28;20240;-80
2023/05/09 14:14:18;;;;;;;4.13;3.63;;;20.40;39.20;;;;;;6203196;28;20239;-80
2023/05/09 14:17:21;;;;;;;3.73;3.30;;;20.40;38.70;;;;;;6215625;28;20243;-79
2023/05/09 14:20:26;;;;;;;4.53;3.87;;;20.40;39.00;;;;;;6216017;28;20239;-79
2023/05/09 14:23:30;;;;;;;4.50;3.27;;;20.30;39.00;;;;;;6213651;28;20259;-79
2023/05/09 14:26:33;;;;;;;10.50;4.23;;;20.40;38.40;;;;;;6212915;28;20341;-78
2023/05/09 14:29:38;;;;;;;4.40;3.50;;;20.50;38.50;;;;;;6200708;28;20240;-82
2023/05/09 14:32:43;;;;;;;6.40;3.43;;;20.50;39.10;;;;;;6216088;28;20771;-79
2023/05/09 14:35:47;;;;;;;3.77;3.40;;;20.40;38.50;;;;;;6212119;28;21176;-81
2023/05/09 14:38:50;;;;;;;8.20;3.37;;;20.30;39.00;;;;;;6218716;28;20238;-79
2023/05/09 14:41:54;;;;;;;3.93;3.47;;;20.40;39.00;;;;;;6217370;28;20246;-80
2023/05/09 14:44:57;;;;;;;3.97;3.60;;;20.30;39.30;;;;;;6221435;28;20619;-80
2023/05/09 14:48:01;;;;;;;11.00;3.83;;;20.40;38.70;;;;;;6220030;28;20235;-81
2023/05/09 14:51:06;;;;;;;6.23;3.50;;;20.50;39.00;;;;;;6197900;28;20286;-81
2023/05/09 14:54:09;;;;;;;3.93;3.60;;;20.60;39.00;;;;;;6212551;28;20243;-81
2023/05/09 14:57:12;;;;;;;3.70;3.50;;;20.60;38.90;;;;;;6210969;28;20343;-80
2023/05/09 15:00:16;;;;;;;5.87;3.33;;;20.60;38.50;;;;;;6207331;28;20238;-81
2023/05/09 15:03:24;;;;;;;4.80;3.53;;;20.50;39.00;;;;;;6178072;28;20232;-81
2023/05/09 15:06:29;;;;;;;4.07;3.10;;;20.50;38.70;;;;;;6195567;28;20254;-77
2023/05/09 15:09:32;;;;;;;5.27;3.40;;;20.50;39.00;;;;;;6202684;28;20855;-78
2023/05/09 15:12:35;;;;;;;8.00;3.57;;;20.50;39.30;;;;;;6215798;28;20231;-78
2023/05/09 15:15:39;;;;;;;4.17;3.80;;;20.50;39.30;;;;;;6218333;28;20322;-78
2023/05/09 15:18:44;;;;;;;5.57;3.60;;;20.50;39.00;;;;;;6215415;28;20604;-79
2023/05/09 15:21:48;;;;;;;6.53;3.10;;;20.50;39.40;;;;;;6217024;28;20845;-78
2023/05/09 15:24:51;;;;;;;3.57;3.40;;;20.50;39.20;;;;;;6204801;28;20239;-77
2023/05/09 15:27:55;;;;;;;5.50;3.50;;;20.50;38.20;;;;;;6208873;28;22511;-78
2023/05/09 15:30:59;;;;;;;4.13;3.20;;;20.50;38.60;;;;;;6211847;28;20249;-79
2023/05/09 15:34:02;;;;;;;3.50;3.23;;;20.40;39.00;;;;;;6216670;28;20242;-77
2023/05/09 15:37:06;;;;;;;5.73;3.80;;;20.50;39.00;;;;;;6207332;28;20228;-79
2023/05/09 15:40:10;;;;;;;6.93;3.40;;;20.50;39.00;;;;;;6196798;28;20232;-79
2023/05/09 15:43:13;;;;;;;4.47;3.60;;;20.60;38.60;;;;;;6197410;28;20752;-80
2023/05/09 15:46:16;;;;;;;4.77;3.83;;;20.70;38.80;;;;;;6213276;28;20445;-81
2023/05/09 15:49:20;;;;;;;3.60;3.33;;;20.70;39.50;;;;;;6205788;28;20263;-79
2023/05/09 15:52:24;;;;;;;6.43;3.37;;;20.60;39.30;;;;;;6206198;28;20248;-79
2023/05/09 15:55:27;;;;;;;8.67;3.33;;;20.50;39.00;;;;;;6211420;28;20724;-80
2023/05/09 15:58:31;;;;;;;9.80;3.90;;;20.40;38.90;;;;;;6211376;28;20235;-78
2023/05/09 16:01:34;;;;;;;8.23;3.63;;;20.30;39.40;;;;;;6205372;28;20747;-81
2023/05/09 16:04:37;;;;;;;6.87;3.40;;;20.20;39.30;;;;;;6210591;28;20235;-80
2023/05/09 16:07:43;;;;;;;10.80;4.57;;;20.10;39.50;;;;;;6210200;28;20648;-77